sensor_id;sensor_type;location;lat;lon;timestamp;temperature;humidity
45233;DHT22;30969;51.052;17.056;2023-05-19T04:55:23;12.20;72.90
45233;DHT22;30969;51.052;17.056;2023-05-19T05:00:26;12.40;73.60
45233;DHT22;30969;51.052;17.056;2023-05-19T05:05:31;12.90;71.80
45233;DHT22;30969;51.052;17.056;2023-05-19T05:10:36;13.20;69.80
45233;DHT22;30969;51.052;17.056;2023-05-19T05:15:40;13.50;68.40
45233;DHT22;30969;51.052;17.056;2023-05-19T05:20:44;13.70;67.90
45233;DHT22;30969;51.052;17.056;2023-05-19T05:25:51;13.70;66.80
45233;DHT22;30969;51.052;17.056;2023-05-19T05:30:55;13.70;66.50
45233;DHT22;30969;51.052;17.056;2023-05-19T05:35:59;13.80;66.20
45233;DHT22;30969;51.052;17.056;2023-05-19T05:41:04;13.70;66.30
45233;DHT22;30969;51.052;17.056;2023-05-19T05:46:07;13.80;66.40
45233;DHT22;30969;51.052;17.056;2023-05-19T05:51:11;13.90;66.10
45233;DHT22;30969;51.052;17.056;2023-05-19T05:56:16;13.90;66.10
45233;DHT22;30969;51.052;17.056;2023-05-19T06:01:20;14.00;65.70
45233;DHT22;30969;51.052;17.056;2023-05-19T06:06:25;14.10;65.80
45233;DHT22;30969;51.052;17.056;2023-05-19T06:11:31;14.00;65.80
45233;DHT22;30969;51.052;17.056;2023-05-19T06:16:35;14.00;66.10
45233;DHT22;30969;51.052;17.056;2023-05-19T06:21:39;13.90;66.50
45233;DHT22;30969;51.052;17.056;2023-05-19T06:26:46;14.00;66.40
45233;DHT22;30969;51.052;17.056;2023-05-19T06:31:49;14.10;66.70
45233;DHT22;30969;51.052;17.056;2023-05-19T06:36:53;14.10;66.20
45233;DHT22;30969;51.052;17.056;2023-05-19T06:41:58;14.20;65.90
45233;DHT22;30969;51.052;17.056;2023-05-19T06:47:01;14.30;65.60
45233;DHT22;30969;51.052;17.056;2023-05-19T06:52:05;14.40;65.80
45233;DHT22;30969;51.052;17.056;2023-05-19T06:57:10;14.20;66.90
45233;DHT22;30969;51.052;17.056;2023-05-19T07:02:14;14.10;67.70
45233;DHT22;30969;51.052;17.056;2023-05-19T07:07:18;14.00;67.90
45233;DHT22;30969;51.052;17.056;2023-05-19T07:12:23;14.00;68.30
45233;DHT22;30969;51.052;17.056;2023-05-19T07:17:28;14.10;67.30
45233;DHT22;30969;51.052;17.056;2023-05-19T07:22:31;14.20;66.80
45233;DHT22;30969;51.052;17.056;2023-05-19T07:27:37;14.30;66.60
45233;DHT22;30969;51.052;17.056;2023-05-19T07:32:41;14.40;66.30
45233;DHT22;30969;51.052;17.056;2023-05-19T07:37:44;14.40;66.30
45233;DHT22;30969;51.052;17.056;2023-05-19T07:42:49;14.30;67.10
45233;DHT22;30969;51.052;17.056;2023-05-19T07:47:53;14.20;67.30
45233;DHT22;30969;51.052;17.056;2023-05-19T07:52:57;14.20;68.00
45233;DHT22;30969;51.052;17.056;2023-05-19T07:58:02;14.20;68.40
45233;DHT22;30969;51.052;17.056;2023-05-19T08:03:06;14.20;69.10
45233;DHT22;30969;51.052;17.056;2023-05-19T08:08:10;14.30;68.80
45233;DHT22;30969;51.052;17.056;2023-05-19T08:13:15;14.40;69.70
45233;DHT22;30969;51.052;17.056;2023-05-19T08:18:19;14.50;68.40
45233;DHT22;30969;51.052;17.056;2023-05-19T08:23:23;14.40;68.90
45233;DHT22;30969;51.052;17.056;2023-05-19T08:28:28;14.30;68.30
45233;DHT22;30969;51.052;17.056;2023-05-19T08:33:31;14.20;68.70
45233;DHT22;30969;51.052;17.056;2023-05-19T08:38:35;14.30;68.40
45233;DHT22;30969;51.052;17.056;2023-05-19T08:43:40;14.50;68.10
45233;DHT22;30969;51.052;17.056;2023-05-19T08:48:44;14.80;67.10
45233;DHT22;30969;51.052;17.056;2023-05-19T08:53:50;14.90;65.90
45233;DHT22;30969;51.052;17.056;2023-05-19T08:58:58;14.90;64.50
45233;DHT22;30969;51.052;17.056;2023-05-19T09:04:02;15.00;65.00
45233;DHT22;30969;51.052;17.056;2023-05-19T09:09:06;15.20;64.60
45233;DHT22;30969;51.052;17.056;2023-05-19T09:14:11;15.40;63.40
45233;DHT22;30969;51.052;17.056;2023-05-19T09:19:15;15.60;63.50
45233;DHT22;30969;51.052;17.056;2023-05-19T09:24:19;15.70;62.30
45233;DHT22;30969;51.052;17.056;2023-05-19T09:29:24;15.80;62.80
45233;DHT22;30969;51.052;17.056;2023-05-19T09:34:28;15.80;61.90
45233;DHT22;30969;51.052;17.056;2023-05-19T09:39:31;15.90;62.20
45233;DHT22;30969;51.052;17.056;2023-05-19T09:44:36;16.00;61.60
45233;DHT22;30969;51.052;17.056;2023-05-19T09:49:45;16.00;61.30
45233;DHT22;30969;51.052;17.056;2023-05-19T09:54:49;16.00;62.00
45233;DHT22;30969;51.052;17.056;2023-05-19T09:59:55;16.20;62.10
45233;DHT22;30969;51.052;17.056;2023-05-19T10:05:00;16.30;60.30
45233;DHT22;30969;51.052;17.056;2023-05-19T10:10:09;16.00;60.30
45233;DHT22;30969;51.052;17.056;2023-05-19T10:15:17;16.10;61.50
45233;DHT22;30969;51.052;17.056;2023-05-19T10:20:25;16.30;61.60
45233;DHT22;30969;51.052;17.056;2023-05-19T10:25:30;16.50;60.60
45233;DHT22;30969;51.052;17.056;2023-05-19T10:30:40;16.50;60.00
45233;DHT22;30969;51.052;17.056;2023-05-19T10:36:01;16.50;60.00
45233;DHT22;30969;51.052;17.056;2023-05-19T10:41:13;16.20;60.20
45233;DHT22;30969;51.052;17.056;2023-05-19T10:46:23;16.20;61.10
45233;DHT22;30969;51.052;17.056;2023-05-19T10:51:30;16.00;62.70
45233;DHT22;30969;51.052;17.056;2023-05-19T10:56:38;15.70;65.00
45233;DHT22;30969;51.052;17.056;2023-05-19T11:01:45;15.60;63.80
45233;DHT22;30969;51.052;17.056;2023-05-19T11:06:50;15.70;63.50
45233;DHT22;30969;51.052;17.056;2023-05-19T11:11:54;15.80;63.00
45233;DHT22;30969;51.052;17.056;2023-05-19T11:16:59;15.80;62.60
45233;DHT22;30969;51.052;17.056;2023-05-19T11:22:08;15.80;62.20
45233;DHT22;30969;51.052;17.056;2023-05-19T11:27:21;15.80;62.40
45233;DHT22;30969;51.052;17.056;2023-05-19T11:32:28;15.80;62.90
45233;DHT22;30969;51.052;17.056;2023-05-19T11:37:32;15.80;62.80
45233;DHT22;30969;51.052;17.056;2023-05-19T11:42:35;15.90;63.20
45233;DHT22;30969;51.052;17.056;2023-05-19T11:47:40;15.80;62.80
45233;DHT22;30969;51.052;17.056;2023-05-19T11:53:03;15.70;63.20
45233;DHT22;30969;51.052;17.056;2023-05-19T11:58:07;15.70;63.50
45233;DHT22;30969;51.052;17.056;2023-05-19T12:03:12;15.80;63.50
45233;DHT22;30969;51.052;17.056;2023-05-19T12:08:17;15.80;64.00
45233;DHT22;30969;51.052;17.056;2023-05-19T12:13:21;15.70;64.00
45233;DHT22;30969;51.052;17.056;2023-05-19T12:18:28;15.70;64.20
45233;DHT22;30969;51.052;17.056;2023-05-19T12:23:34;15.60;64.10
45233;DHT22;30969;51.052;17.056;2023-05-19T12:28:37;15.70;64.10
45233;DHT22;30969;51.052;17.056;2023-05-19T12:33:42;15.80;63.80
45233;DHT22;30969;51.052;17.056;2023-05-19T12:38:46;15.80;64.00
45233;DHT22;30969;51.052;17.056;2023-05-19T12:43:49;15.90;64.20
45233;DHT22;30969;51.052;17.056;2023-05-19T12:48:58;16.00;63.70
45233;DHT22;30969;51.052;17.056;2023-05-19T12:54:02;16.00;63.80
45233;DHT22;30969;51.052;17.056;2023-05-19T12:59:06;15.90;63.70
45233;DHT22;30969;51.052;17.056;2023-05-19T13:04:11;15.90;63.90
45233;DHT22;30969;51.052;17.056;2023-05-19T13:09:14;15.90;64.00
45233;DHT22;30969;51.052;17.056;2023-05-19T13:14:18;15.90;64.10
45233;DHT22;30969;51.052;17.056;2023-05-19T13:19:23;15.70;64.40
45233;DHT22;30969;51.052;17.056;2023-05-19T13:24:28;15.70;64.80
45233;DHT22;30969;51.052;17.056;2023-05-19T13:29:31;15.60;65.20
45233;DHT22;30969;51.052;17.056;2023-05-19T13:34:36;15.50;65.60
45233;DHT22;30969;51.052;17.056;2023-05-19T13:39:40;15.40;65.90
45233;DHT22;30969;51.052;17.056;2023-05-19T13:44:44;15.50;65.90
45233;DHT22;30969;51.052;17.056;2023-05-19T13:49:49;15.50;66.80
45233;DHT22;30969;51.052;17.056;2023-05-19T13:54:52;15.60;66.00
45233;DHT22;30969;51.052;17.056;2023-05-19T13:59:58;15.60;65.70
45233;DHT22;30969;51.052;17.056;2023-05-19T14:05:08;15.60;65.70
45233;DHT22;30969;51.052;17.056;2023-05-19T14:10:12;15.60;66.10
45233;DHT22;30969;51.052;17.056;2023-05-19T14:15:15;15.70;66.30
45233;DHT22;30969;51.052;17.056;2023-05-19T14:20:20;15.80;66.20
45233;DHT22;30969;51.052;17.056;2023-05-19T14:25:24;16.20;65.70
45233;DHT22;30969;51.052;17.056;2023-05-19T14:30:28;16.30;64.50
45233;DHT22;30969;51.052;17.056;2023-05-19T14:35:32;16.40;64.60
45233;DHT22;30969;51.052;17.056;2023-05-19T14:40:36;16.40;63.60
45233;DHT22;30969;51.052;17.056;2023-05-19T14:45:42;16.30;64.00
45233;DHT22;30969;51.052;17.056;2023-05-19T14:50:47;16.40;64.20
45233;DHT22;30969;51.052;17.056;2023-05-19T14:55:51;16.50;64.10
45233;DHT22;30969;51.052;17.056;2023-05-19T15:00:56;16.50;63.80
45233;DHT22;30969;51.052;17.056;2023-05-19T15:06:01;16.50;63.50
45233;DHT22;30969;51.052;17.056;2023-05-19T15:11:05;16.60;63.60
45233;DHT22;30969;51.052;17.056;2023-05-19T15:16:09;16.70;63.60
45233;DHT22;30969;51.052;17.056;2023-05-19T15:21:17;16.70;63.40
45233;DHT22;30969;51.052;17.056;2023-05-19T15:26:21;16.60;62.90
45233;DHT22;30969;51.052;17.056;2023-05-19T15:31:25;16.50;63.60
45233;DHT22;30969;51.052;17.056;2023-05-19T15:36:31;16.40;63.50
45233;DHT22;30969;51.052;17.056;2023-05-19T15:41:35;16.40;63.60
45233;DHT22;30969;51.052;17.056;2023-05-19T15:46:38;16.50;63.60
45233;DHT22;30969;51.052;17.056;2023-05-19T15:51:44;16.40;63.60
45233;DHT22;30969;51.052;17.056;2023-05-19T15:56:47;16.30;64.00
45233;DHT22;30969;51.052;17.056;2023-05-19T16:01:51;16.20;64.50
45233;DHT22;30969;51.052;17.056;2023-05-19T16:06:56;16.10;64.90
45233;DHT22;30969;51.052;17.056;2023-05-19T16:12:00;16.20;64.90
45233;DHT22;30969;51.052;17.056;2023-05-19T16:17:04;16.20;64.80
45233;DHT22;30969;51.052;17.056;2023-05-19T16:22:13;16.30;64.80
45233;DHT22;30969;51.052;17.056;2023-05-19T16:27:19;16.20;65.00
45233;DHT22;30969;51.052;17.056;2023-05-19T16:32:22;16.20;64.60
45233;DHT22;30969;51.052;17.056;2023-05-19T16:37:27;16.20;64.60
45233;DHT22;30969;51.052;17.056;2023-05-19T16:42:31;16.20;64.60
45233;DHT22;30969;51.052;17.056;2023-05-19T16:47:34;16.20;64.70
45233;DHT22;30969;51.052;17.056;2023-05-19T16:52:39;16.20;65.00
45233;DHT22;30969;51.052;17.056;2023-05-19T16:57:43;16.20;64.90
45233;DHT22;30969;51.052;17.056;2023-05-19T17:02:47;16.20;66.40
45233;DHT22;30969;51.052;17.056;2023-05-19T17:07:52;16.00;66.00
45233;DHT22;30969;51.052;17.056;2023-05-19T17:12:55;16.00;66.10
45233;DHT22;30969;51.052;17.056;2023-05-19T17:17:59;16.00;65.80
45233;DHT22;30969;51.052;17.056;2023-05-19T17:23:04;16.00;66.10
45233;DHT22;30969;51.052;17.056;2023-05-19T17:28:08;16.00;66.20
45233;DHT22;30969;51.052;17.056;2023-05-19T17:33:12;16.00;65.90
45233;DHT22;30969;51.052;17.056;2023-05-19T17:38:17;16.00;65.70
45233;DHT22;30969;51.052;17.056;2023-05-19T17:43:20;16.00;65.40
45233;DHT22;30969;51.052;17.056;2023-05-19T17:48:24;16.00;65.50
45233;DHT22;30969;51.052;17.056;2023-05-19T17:53:30;16.00;65.50
45233;DHT22;30969;51.052;17.056;2023-05-19T17:58:34;15.90;65.80
45233;DHT22;30969;51.052;17.056;2023-05-19T18:03:38;15.90;66.10
45233;DHT22;30969;51.052;17.056;2023-05-19T18:08:44;15.90;66.10
45233;DHT22;30969;51.052;17.056;2023-05-19T18:13:52;15.90;66.20
45233;DHT22;30969;51.052;17.056;2023-05-19T18:18:55;15.80;66.70
45233;DHT22;30969;51.052;17.056;2023-05-19T18:24:00;15.80;67.00
45233;DHT22;30969;51.052;17.056;2023-05-19T18:29:07;15.80;67.50
45233;DHT22;30969;51.052;17.056;2023-05-19T18:34:11;15.80;67.50
45233;DHT22;30969;51.052;17.056;2023-05-19T18:39:16;15.80;67.40
45233;DHT22;30969;51.052;17.056;2023-05-19T18:44:19;15.80;67.20
45233;DHT22;30969;51.052;17.056;2023-05-19T18:49:23;15.80;67.00
45233;DHT22;30969;51.052;17.056;2023-05-19T18:54:28;15.90;67.20
45233;DHT22;30969;51.052;17.056;2023-05-19T18:59:34;15.80;67.30
45233;DHT22;30969;51.052;17.056;2023-05-19T19:04:37;15.80;67.30
45233;DHT22;30969;51.052;17.056;2023-05-19T19:09:42;15.80;67.30
45233;DHT22;30969;51.052;17.056;2023-05-19T19:14:46;15.70;67.40
45233;DHT22;30969;51.052;17.056;2023-05-19T19:19:49;15.70;67.60
45233;DHT22;30969;51.052;17.056;2023-05-19T19:24:54;15.70;67.60
45233;DHT22;30969;51.052;17.056;2023-05-19T19:29:58;15.70;67.60
45233;DHT22;30969;51.052;17.056;2023-05-19T19:35:02;15.70;67.80
45233;DHT22;30969;51.052;17.056;2023-05-19T19:40:08;15.70;68.10
45233;DHT22;30969;51.052;17.056;2023-05-19T19:45:12;15.70;68.40
45233;DHT22;30969;51.052;17.056;2023-05-19T19:50:17;15.70;68.40
45233;DHT22;30969;51.052;17.056;2023-05-19T19:55:22;15.60;68.50
45233;DHT22;30969;51.052;17.056;2023-05-19T20:00:25;15.60;68.50
45233;DHT22;30969;51.052;17.056;2023-05-19T20:05:29;15.60;68.50
45233;DHT22;30969;51.052;17.056;2023-05-19T20:10:34;15.60;68.70
45233;DHT22;30969;51.052;17.056;2023-05-19T20:15:38;15.70;68.60
45233;DHT22;30969;51.052;17.056;2023-05-19T20:20:42;15.60;68.70
45233;DHT22;30969;51.052;17.056;2023-05-19T20:25:46;15.70;68.60
45233;DHT22;30969;51.052;17.056;2023-05-19T20:31:10;15.70;68.50
45233;DHT22;30969;51.052;17.056;2023-05-19T20:36:14;15.70;68.50
45233;DHT22;30969;51.052;17.056;2023-05-19T20:41:19;15.70;68.60
45233;DHT22;30969;51.052;17.056;2023-05-19T20:46:23;15.70;69.50
45233;DHT22;30969;51.052;17.056;2023-05-19T20:51:27;15.60;69.60
45233;DHT22;30969;51.052;17.056;2023-05-19T20:56:32;15.60;69.40
45233;DHT22;30969;51.052;17.056;2023-05-19T21:01:35;15.60;69.30
45233;DHT22;30969;51.052;17.056;2023-05-19T21:06:39;15.70;69.30
45233;DHT22;30969;51.052;17.056;2023-05-19T21:11:44;15.70;69.20
45233;DHT22;30969;51.052;17.056;2023-05-19T21:16:49;15.70;69.30
45233;DHT22;30969;51.052;17.056;2023-05-19T21:21:55;15.70;69.50
45233;DHT22;30969;51.052;17.056;2023-05-19T21:26:59;15.70;69.70
45233;DHT22;30969;51.052;17.056;2023-05-19T21:32:04;15.60;69.90
45233;DHT22;30969;51.052;17.056;2023-05-19T21:37:08;15.60;70.40
45233;DHT22;30969;51.052;17.056;2023-05-19T21:42:13;15.50;70.30
45233;DHT22;30969;51.052;17.056;2023-05-19T21:47:16;15.50;70.90
45233;DHT22;30969;51.052;17.056;2023-05-19T21:52:20;15.50;70.70
45233;DHT22;30969;51.052;17.056;2023-05-19T21:57:25;15.50;71.60
45233;DHT22;30969;51.052;17.056;2023-05-19T22:02:28;15.50;70.30
45233;DHT22;30969;51.052;17.056;2023-05-19T22:07:32;15.60;70.40
45233;DHT22;30969;51.052;17.056;2023-05-19T22:12:38;15.50;70.50
45233;DHT22;30969;51.052;17.056;2023-05-19T22:17:41;15.50;70.60
45233;DHT22;30969;51.052;17.056;2023-05-19T22:22:45;15.50;70.60
45233;DHT22;30969;51.052;17.056;2023-05-19T22:27:50;15.50;70.40
